sensor_id;sensor_type;location;lat;lon;timestamp;pressure;altitude;pressure_sealevel;temperature;humidity
28167;BME280;15455;53.376;-6.262;2023-06-04T00:00:13;102258.06;;;9.01;100.00
28167;BME280;15455;53.376;-6.262;2023-06-04T00:02:59;102253.81;;;9.03;100.00
28167;BME280;15455;53.376;-6.262;2023-06-04T00:05:45;102255.41;;;8.99;100.00
28167;BME280;15455;53.376;-6.262;2023-06-04T00:08:30;102262.31;;;8.97;100.00
28167;BME280;15455;53.376;-6.262;2023-06-04T00:11:16;102260.53;;;8.96;100.00
28167;BME280;15455;53.376;-6.262;2023-06-04T00:14:02;102258.59;;;8.89;100.00
28167;BME280;15455;53.376;-6.262;2023-06-04T00:16:49;102268.22;;;8.92;100.00
28167;BME280;15455;53.376;-6.262;2023-06-04T00:19:34;102259.78;;;9.00;100.00
28167;BME280;15455;53.376;-6.262;2023-06-04T00:22:20;102261.44;;;8.98;100.00
28167;BME280;15455;53.376;-6.262;2023-06-04T00:25:06;102263.34;;;9.04;100.00
28167;BME280;15455;53.376;-6.262;2023-06-04T00:27:55;102265.09;;;9.03;100.00
28167;BME280;15455;53.376;-6.262;2023-06-04T00:30:40;102264.91;;;8.97;100.00
28167;BME280;15455;53.376;-6.262;2023-06-04T00:33:26;102258.53;;;8.86;100.00
28167;BME280;15455;53.376;-6.262;2023-06-04T00:36:11;102256.09;;;8.92;100.00
28167;BME280;15455;53.376;-6.262;2023-06-04T00:38:57;102257.19;;;9.00;100.00
28167;BME280;15455;53.376;-6.262;2023-06-04T00:41:42;102255.59;;;9.06;100.00
28167;BME280;15455;53.376;-6.262;2023-06-04T00:44:28;102261.56;;;9.01;100.00
28167;BME280;15455;53.376;-6.262;2023-06-04T00:47:14;102261.56;;;9.01;100.00
28167;BME280;15455;53.376;-6.262;2023-06-04T00:50:00;102249.31;;;8.97;100.00
28167;BME280;15455;53.376;-6.262;2023-06-04T00:52:46;102262.41;;;9.00;100.00
28167;BME280;15455;53.376;-6.262;2023-06-04T00:55:32;102255.25;;;8.93;100.00
28167;BME280;15455;53.376;-6.262;2023-06-04T00:58:18;102262.25;;;8.94;100.00
28167;BME280;15455;53.376;-6.262;2023-06-04T01:01:04;102258.09;;;9.02;100.00
28167;BME280;15455;53.376;-6.262;2023-06-04T01:03:54;102255.53;;;9.04;100.00
28167;BME280;15455;53.376;-6.262;2023-06-04T01:06:44;102249.22;;;8.94;100.00
28167;BME280;15455;53.376;-6.262;2023-06-04T01:09:30;102246.31;;;8.85;100.00
28167;BME280;15455;53.376;-6.262;2023-06-04T01:12:16;102252.09;;;8.75;100.00
28167;BME280;15455;53.376;-6.262;2023-06-04T01:15:02;102247.47;;;8.64;100.00
28167;BME280;15455;53.376;-6.262;2023-06-04T01:17:58;102242.88;;;8.56;100.00
28167;BME280;15455;53.376;-6.262;2023-06-04T01:20:49;102237.34;;;8.45;100.00
28167;BME280;15455;53.376;-6.262;2023-06-04T01:23:47;102238.56;;;8.29;100.00
28167;BME280;15455;53.376;-6.262;2023-06-04T01:26:35;102238.19;;;8.16;100.00
28167;BME280;15455;53.376;-6.262;2023-06-04T01:29:20;102233.66;;;8.11;100.00
28167;BME280;15455;53.376;-6.262;2023-06-04T01:32:06;102236.09;;;8.05;100.00
28167;BME280;15455;53.376;-6.262;2023-06-04T01:34:52;102230.88;;;8.05;100.00
28167;BME280;15455;53.376;-6.262;2023-06-04T01:37:37;102237.69;;;8.01;100.00
28167;BME280;15455;53.376;-6.262;2023-06-04T01:40:23;102242.94;;;8.03;100.00
28167;BME280;15455;53.376;-6.262;2023-06-04T01:43:10;102239.28;;;7.96;100.00
28167;BME280;15455;53.376;-6.262;2023-06-04T01:45:56;102228.69;;;7.91;100.00
28167;BME280;15455;53.376;-6.262;2023-06-04T01:48:42;102231.31;;;7.91;100.00
28167;BME280;15455;53.376;-6.262;2023-06-04T01:51:27;102235.69;;;7.92;100.00
28167;BME280;15455;53.376;-6.262;2023-06-04T01:54:12;102225.91;;;7.85;100.00
28167;BME280;15455;53.376;-6.262;2023-06-04T01:56:58;102235.69;;;7.92;100.00
28167;BME280;15455;53.376;-6.262;2023-06-04T01:59:43;102231.25;;;7.90;100.00
28167;BME280;15455;53.376;-6.262;2023-06-04T02:02:30;102239.38;;;7.99;100.00
28167;BME280;15455;53.376;-6.262;2023-06-04T02:05:16;102235.09;;;8.01;100.00
28167;BME280;15455;53.376;-6.262;2023-06-04T02:08:02;102233.31;;;8.00;100.00
28167;BME280;15455;53.376;-6.262;2023-06-04T02:10:52;102233.94;;;7.93;100.00
28167;BME280;15455;53.376;-6.262;2023-06-04T02:13:37;102246.91;;;7.91;100.00
28167;BME280;15455;53.376;-6.262;2023-06-04T02:16:23;102242.34;;;7.84;100.00
28167;BME280;15455;53.376;-6.262;2023-06-04T02:19:09;102229.91;;;7.75;100.00
28167;BME280;15455;53.376;-6.262;2023-06-04T02:21:58;102241.13;;;7.73;100.00
28167;BME280;15455;53.376;-6.262;2023-06-04T02:24:44;102235.59;;;7.63;100.00
28167;BME280;15455;53.376;-6.262;2023-06-04T02:27:29;102243.28;;;7.60;100.00
28167;BME280;15455;53.376;-6.262;2023-06-04T02:30:15;102237.78;;;7.51;100.00
28167;BME280;15455;53.376;-6.262;2023-06-04T02:33:04;102244.63;;;7.49;100.00
28167;BME280;15455;53.376;-6.262;2023-06-04T02:35:51;102241.88;;;7.44;100.00
28167;BME280;15455;53.376;-6.262;2023-06-04T02:38:37;102234.91;;;7.43;100.00
28167;BME280;15455;53.376;-6.262;2023-06-04T02:41:23;102235.69;;;7.41;100.00
28167;BME280;15455;53.376;-6.262;2023-06-04T02:44:09;102238.97;;;7.35;100.00
28167;BME280;15455;53.376;-6.262;2023-06-04T02:46:55;102240.56;;;7.32;100.00
28167;BME280;15455;53.376;-6.262;2023-06-04T02:49:40;102246.59;;;7.30;100.00
28167;BME280;15455;53.376;-6.262;2023-06-04T02:52:25;102236.81;;;7.23;100.00
28167;BME280;15455;53.376;-6.262;2023-06-04T02:55:11;102238.28;;;7.15;100.00
28167;BME280;15455;53.376;-6.262;2023-06-04T02:58:00;102246.38;;;7.24;100.00
28167;BME280;15455;53.376;-6.262;2023-06-04T03:00:47;102242.84;;;7.22;100.00
28167;BME280;15455;53.376;-6.262;2023-06-04T03:03:32;102247.81;;;7.16;100.00
28167;BME280;15455;53.376;-6.262;2023-06-04T03:06:20;102244.41;;;7.17;100.00
28167;BME280;15455;53.376;-6.262;2023-06-04T03:09:06;102250.25;;;7.36;100.00
28167;BME280;15455;53.376;-6.262;2023-06-04T03:11:52;102248.09;;;7.50;100.00
28167;BME280;15455;53.376;-6.262;2023-06-04T03:14:39;102248.25;;;7.53;100.00
28167;BME280;15455;53.376;-6.262;2023-06-04T03:17:26;102241.94;;;7.46;100.00
28167;BME280;15455;53.376;-6.262;2023-06-04T03:20:12;102242.50;;;7.37;100.00
28167;BME280;15455;53.376;-6.262;2023-06-04T03:22:57;102238.97;;;7.35;100.00
28167;BME280;15455;53.376;-6.262;2023-06-04T03:25:43;102234.00;;;7.41;100.00
28167;BME280;15455;53.376;-6.262;2023-06-04T03:28:29;102236.06;;;7.52;100.00
28167;BME280;15455;53.376;-6.262;2023-06-04T03:31:16;102240.50;;;7.54;100.00
28167;BME280;15455;53.376;-6.262;2023-06-04T03:34:02;102240.69;;;7.60;100.00
28167;BME280;15455;53.376;-6.262;2023-06-04T03:36:48;102238.16;;;7.62;100.00
28167;BME280;15455;53.376;-6.262;2023-06-04T03:39:33;102241.41;;;7.56;100.00
28167;BME280;15455;53.376;-6.262;2023-06-04T03:42:21;102241.25;;;7.52;100.00
28167;BME280;15455;53.376;-6.262;2023-06-04T03:45:08;102244.13;;;7.59;100.00
28167;BME280;15455;53.376;-6.262;2023-06-04T03:47:54;102240.31;;;7.75;100.00
28167;BME280;15455;53.376;-6.262;2023-06-04T03:50:40;102237.34;;;7.90;100.00
28167;BME280;15455;53.376;-6.262;2023-06-04T03:53:26;102246.13;;;7.94;100.00
28167;BME280;15455;53.376;-6.262;2023-06-04T03:56:12;102252.38;;;7.99;100.00
28167;BME280;15455;53.376;-6.262;2023-06-04T03:58:59;102246.44;;;8.03;100.00
28167;BME280;15455;53.376;-6.262;2023-06-04T04:01:45;102241.97;;;7.99;100.00
28167;BME280;15455;53.376;-6.262;2023-06-04T04:04:30;102242.38;;;7.86;100.00
28167;BME280;15455;53.376;-6.262;2023-06-04T04:07:18;102243.09;;;7.80;100.00
28167;BME280;15455;53.376;-6.262;2023-06-04T04:10:05;102239.97;;;7.90;100.00
28167;BME280;15455;53.376;-6.262;2023-06-04T04:12:51;102242.78;;;7.98;100.00
28167;BME280;15455;53.376;-6.262;2023-06-04T04:15:41;102247.84;;;7.93;100.00
28167;BME280;15455;53.376;-6.262;2023-06-04T04:18:26;102241.50;;;7.85;100.00
28167;BME280;15455;53.376;-6.262;2023-06-04T04:21:12;102242.47;;;7.87;100.00
28167;BME280;15455;53.376;-6.262;2023-06-04T04:23:58;102251.31;;;7.94;100.00
28167;BME280;15455;53.376;-6.262;2023-06-04T04:26:44;102247.16;;;7.99;100.00
28167;BME280;15455;53.376;-6.262;2023-06-04T04:29:30;102253.59;;;8.10;100.00
28167;BME280;15455;53.376;-6.262;2023-06-04T04:32:20;102256.34;;;8.15;100.00
28167;BME280;15455;53.376;-6.262;2023-06-04T04:35:06;102254.66;;;8.17;100.00
28167;BME280;15455;53.376;-6.262;2023-06-04T04:37:56;102260.22;;;8.28;100.00
28167;BME280;15455;53.376;-6.262;2023-06-04T04:40:43;102274.13;;;8.30;100.00
28167;BME280;15455;53.376;-6.262;2023-06-04T04:43:32;102266.53;;;8.36;100.00
28167;BME280;15455;53.376;-6.262;2023-06-04T04:46:31;102275.63;;;8.49;100.00
28167;BME280;15455;53.376;-6.262;2023-06-04T04:49:17;102281.69;;;8.77;100.00
28167;BME280;15455;53.376;-6.262;2023-06-04T04:52:03;102290.91;;;8.96;100.00
28167;BME280;15455;53.376;-6.262;2023-06-04T04:54:48;102288.34;;;8.97;100.00
28167;BME280;15455;53.376;-6.262;2023-06-04T04:57:34;102290.34;;;9.06;100.00
28167;BME280;15455;53.376;-6.262;2023-06-04T05:00:21;102293.63;;;9.63;100.00
28167;BME280;15455;53.376;-6.262;2023-06-04T05:03:10;102291.88;;;9.63;100.00
28167;BME280;15455;53.376;-6.262;2023-06-04T05:05:56;102283.94;;;9.59;100.00
28167;BME280;15455;53.376;-6.262;2023-06-04T05:08:42;102275.03;;;9.50;100.00
28167;BME280;15455;53.376;-6.262;2023-06-04T05:11:29;102271.41;;;9.44;100.00
28167;BME280;15455;53.376;-6.262;2023-06-04T05:14:15;102275.66;;;9.42;100.00
28167;BME280;15455;53.376;-6.262;2023-06-04T05:17:01;102276.63;;;9.44;100.00
28167;BME280;15455;53.376;-6.262;2023-06-04T05:19:48;102280.16;;;9.47;100.00
28167;BME280;15455;53.376;-6.262;2023-06-04T05:22:34;102280.31;;;9.52;100.00
28167;BME280;15455;53.376;-6.262;2023-06-04T05:25:23;102278.84;;;9.63;100.00
28167;BME280;15455;53.376;-6.262;2023-06-04T05:28:09;102287.88;;;9.76;100.00
28167;BME280;15455;53.376;-6.262;2023-06-04T05:30:55;102284.03;;;9.95;100.00
28167;BME280;15455;53.376;-6.262;2023-06-04T05:33:47;102292.06;;;10.04;100.00
28167;BME280;15455;53.376;-6.262;2023-06-04T05:36:36;102300.13;;;10.14;100.00
28167;BME280;15455;53.376;-6.262;2023-06-04T05:39:24;102295.06;;;10.20;100.00
28167;BME280;15455;53.376;-6.262;2023-06-04T05:42:19;102298.75;;;10.30;100.00
28167;BME280;15455;53.376;-6.262;2023-06-04T05:45:05;102304.31;;;10.42;100.00
28167;BME280;15455;53.376;-6.262;2023-06-04T05:47:53;102304.63;;;10.56;100.00
28167;BME280;15455;53.376;-6.262;2023-06-04T05:50:43;102317.09;;;10.69;100.00
28167;BME280;15455;53.376;-6.262;2023-06-04T05:53:29;102311.34;;;10.84;100.00
28167;BME280;15455;53.376;-6.262;2023-06-04T05:56:15;102312.53;;;11.00;100.00
28167;BME280;15455;53.376;-6.262;2023-06-04T05:59:02;102315.38;;;11.11;100.00
28167;BME280;15455;53.376;-6.262;2023-06-04T06:01:49;102313.75;;;11.18;100.00
28167;BME280;15455;53.376;-6.262;2023-06-04T06:04:35;102321.75;;;11.24;100.00
28167;BME280;15455;53.376;-6.262;2023-06-04T06:07:22;102319.25;;;11.30;100.00
28167;BME280;15455;53.376;-6.262;2023-06-04T06:10:08;102322.00;;;11.38;100.00
28167;BME280;15455;53.376;-6.262;2023-06-04T06:12:53;102324.81;;;11.47;100.00
28167;BME280;15455;53.376;-6.262;2023-06-04T06:15:39;102320.59;;;11.55;100.00
28167;BME280;15455;53.376;-6.262;2023-06-04T06:18:25;102325.19;;;11.67;100.00
28167;BME280;15455;53.376;-6.262;2023-06-04T06:21:10;102317.50;;;11.76;100.00
28167;BME280;15455;53.376;-6.262;2023-06-04T06:23:57;102315.97;;;11.88;100.00
28167;BME280;15455;53.376;-6.262;2023-06-04T06:26:43;102311.66;;;11.93;100.00
28167;BME280;15455;53.376;-6.262;2023-06-04T06:29:30;102314.47;;;12.01;100.00
28167;BME280;15455;53.376;-6.262;2023-06-04T06:32:16;102312.03;;;12.11;100.00
28167;BME280;15455;53.376;-6.262;2023-06-04T06:35:01;102309.56;;;12.19;100.00
28167;BME280;15455;53.376;-6.262;2023-06-04T06:37:48;102302.66;;;12.26;100.00
28167;BME280;15455;53.376;-6.262;2023-06-04T06:40:33;102300.13;;;12.32;100.00
28167;BME280;15455;53.376;-6.262;2023-06-04T06:43:19;102303.88;;;12.48;100.00
28167;BME280;15455;53.376;-6.262;2023-06-04T06:46:05;102302.22;;;12.56;100.00
28167;BME280;15455;53.376;-6.262;2023-06-04T06:48:50;102307.59;;;12.64;100.00
28167;BME280;15455;53.376;-6.262;2023-06-04T06:51:35;102307.66;;;12.68;100.00
28167;BME280;15455;53.376;-6.262;2023-06-04T06:54:21;102304.31;;;12.80;100.00
28167;BME280;15455;53.376;-6.262;2023-06-04T06:57:07;102296.66;;;12.94;100.00
28167;BME280;15455;53.376;-6.262;2023-06-04T06:59:54;102294.19;;;13.08;100.00
28167;BME280;15455;53.376;-6.262;2023-06-04T07:02:40;102293.41;;;13.17;100.00
28167;BME280;15455;53.376;-6.262;2023-06-04T07:05:25;102290.94;;;13.29;100.00
28167;BME280;15455;53.376;-6.262;2023-06-04T07:08:11;102280.56;;;13.38;100.00
28167;BME280;15455;53.376;-6.262;2023-06-04T07:10:57;102280.69;;;13.48;100.00
28167;BME280;15455;53.376;-6.262;2023-06-04T07:13:43;102279.94;;;13.61;100.00
28167;BME280;15455;53.376;-6.262;2023-06-04T07:16:28;102280.81;;;13.65;100.00
28167;BME280;15455;53.376;-6.262;2023-06-04T07:19:14;102281.72;;;13.67;100.00
28167;BME280;15455;53.376;-6.262;2023-06-04T07:22:00;102280.03;;;13.73;100.00
28167;BME280;15455;53.376;-6.262;2023-06-04T07:24:45;102267.03;;;13.89;100.00
28167;BME280;15455;53.376;-6.262;2023-06-04T07:27:31;102272.47;;;14.09;100.00
28167;BME280;15455;53.376;-6.262;2023-06-04T07:30:16;102271.63;;;14.18;100.00
28167;BME280;15455;53.376;-6.262;2023-06-04T07:33:02;102274.31;;;14.24;100.00
28167;BME280;15455;53.376;-6.262;2023-06-04T07:35:47;102274.38;;;14.33;100.00
28167;BME280;15455;53.376;-6.262;2023-06-04T07:38:33;102276.19;;;14.40;100.00
28167;BME280;15455;53.376;-6.262;2023-06-04T07:41:19;102278.84;;;14.47;100.00
28167;BME280;15455;53.376;-6.262;2023-06-04T07:44:04;102277.06;;;14.44;100.00
28167;BME280;15455;53.376;-6.262;2023-06-04T07:46:50;102286.75;;;14.54;100.00
28167;BME280;15455;53.376;-6.262;2023-06-04T07:49:35;102283.38;;;14.63;100.00
28167;BME280;15455;53.376;-6.262;2023-06-04T07:52:35;102282.56;;;14.81;100.00
28167;BME280;15455;53.376;-6.262;2023-06-04T07:55:20;102285.19;;;14.86;100.00
28167;BME280;15455;53.376;-6.262;2023-06-04T07:58:06;102286.97;;;14.87;100.00
28167;BME280;15455;53.376;-6.262;2023-06-04T08:00:52;102287.84;;;14.90;100.00
28167;BME280;15455;53.376;-6.262;2023-06-04T08:03:38;102280.84;;;14.89;100.00
28167;BME280;15455;53.376;-6.262;2023-06-04T08:06:24;102274.75;;;14.93;100.00
28167;BME280;15455;53.376;-6.262;2023-06-04T08:09:12;102280.00;;;14.93;100.00
28167;BME280;15455;53.376;-6.262;2023-06-04T08:11:59;102278.25;;;14.96;100.00
28167;BME280;15455;53.376;-6.262;2023-06-04T08:14:45;102269.50;;;15.01;100.00
28167;BME280;15455;53.376;-6.262;2023-06-04T08:17:31;102269.50;;;15.06;100.00
28167;BME280;15455;53.376;-6.262;2023-06-04T08:20:16;102270.41;;;15.14;100.00
28167;BME280;15455;53.376;-6.262;2023-06-04T08:23:02;102274.81;;;15.17;100.00
28167;BME280;15455;53.376;-6.262;2023-06-04T08:25:48;102266.03;;;15.21;100.00
28167;BME280;15455;53.376;-6.262;2023-06-04T08:28:33;102269.56;;;15.24;100.00
28167;BME280;15455;53.376;-6.262;2023-06-04T08:31:19;102273.97;;;15.32;100.00
28167;BME280;15455;53.376;-6.262;2023-06-04T08:34:05;102274.88;;;15.41;100.00
28167;BME280;15455;53.376;-6.262;2023-06-04T08:36:51;102281.00;;;15.50;100.00
28167;BME280;15455;53.376;-6.262;2023-06-04T08:39:36;102263.47;;;15.59;100.00
28167;BME280;15455;53.376;-6.262;2023-06-04T08:42:29;102273.13;;;15.65;100.00
28167;BME280;15455;53.376;-6.262;2023-06-04T08:45:19;102269.63;;;15.68;100.00
28167;BME280;15455;53.376;-6.262;2023-06-04T08:48:09;102261.75;;;15.74;100.00
28167;BME280;15455;53.376;-6.262;2023-06-04T08:50:57;102269.66;;;15.78;100.00
28167;BME280;15455;53.376;-6.262;2023-06-04T08:53:44;102262.66;;;15.82;100.00
28167;BME280;15455;53.376;-6.262;2023-06-04T08:56:34;102263.53;;;15.90;100.00
28167;BME280;15455;53.376;-6.262;2023-06-04T08:59:20;102261.75;;;15.98;100.00
28167;BME280;15455;53.376;-6.262;2023-06-04T09:02:06;102267.03;;;16.02;100.00
28167;BME280;15455;53.376;-6.262;2023-06-04T09:04:53;102271.41;;;16.03;100.00
28167;BME280;15455;53.376;-6.262;2023-06-04T09:07:40;102271.41;;;16.03;100.00
28167;BME280;15455;53.376;-6.262;2023-06-04T09:10:29;102269.66;;;16.02;100.00
28167;BME280;15455;53.376;-6.262;2023-06-04T09:13:15;102275.84;;;15.99;100.00
28167;BME280;15455;53.376;-6.262;2023-06-04T09:16:03;102278.47;;;15.99;100.00
28167;BME280;15455;53.376;-6.262;2023-06-04T09:18:48;102278.47;;;16.02;100.00
28167;BME280;15455;53.376;-6.262;2023-06-04T09:21:55;102279.31;;;16.07;100.00
28167;BME280;15455;53.376;-6.262;2023-06-04T09:24:42;102274.94;;;16.12;100.00
28167;BME280;15455;53.376;-6.262;2023-06-04T09:27:38;102275.78;;;16.16;100.00
28167;BME280;15455;53.376;-6.262;2023-06-04T09:30:24;102275.78;;;16.25;100.00
28167;BME280;15455;53.376;-6.262;2023-06-04T09:33:10;102274.00;;;16.41;100.00
28167;BME280;15455;53.376;-6.262;2023-06-04T09:35:58;102273.09;;;16.50;100.00
28167;BME280;15455;53.376;-6.262;2023-06-04T09:38:45;102269.59;;;16.53;100.00
28167;BME280;15455;53.376;-6.262;2023-06-04T09:41:34;102278.38;;;16.53;100.00
28167;BME280;15455;53.376;-6.262;2023-06-04T09:44:19;102281.00;;;16.55;100.00
28167;BME280;15455;53.376;-6.262;2023-06-04T09:47:05;102277.47;;;16.60;100.00
28167;BME280;15455;53.376;-6.262;2023-06-04T09:49:50;102281.84;;;16.64;100.00
28167;BME280;15455;53.376;-6.262;2023-06-04T09:52:37;102279.19;;;16.67;100.00
28167;BME280;15455;53.376;-6.262;2023-06-04T09:55:25;102287.09;;;16.67;100.00
28167;BME280;15455;53.376;-6.262;2023-06-04T09:58:11;102289.72;;;16.74;100.00
28167;BME280;15455;53.376;-6.262;2023-06-04T10:00:59;102293.25;;;16.73;100.00
28167;BME280;15455;53.376;-6.262;2023-06-04T10:03:50;102296.78;;;16.69;100.00
28167;BME280;15455;53.376;-6.262;2023-06-04T10:06:39;102302.06;;;16.69;100.00
28167;BME280;15455;53.376;-6.262;2023-06-04T10:09:27;102304.69;;;16.67;100.00
28167;BME280;15455;53.376;-6.262;2023-06-04T10:12:21;102307.34;;;16.65;100.00
28167;BME280;15455;53.376;-6.262;2023-06-04T10:15:11;102310.84;;;16.63;100.00
28167;BME280;15455;53.376;-6.262;2023-06-04T10:17:58;102303.81;;;16.71;100.00
28167;BME280;15455;53.376;-6.262;2023-06-04T10:20:43;102309.91;;;16.81;100.00
28167;BME280;15455;53.376;-6.262;2023-06-04T10:23:29;102313.44;;;16.83;100.00
28167;BME280;15455;53.376;-6.262;2023-06-04T10:26:16;102313.44;;;16.84;100.00
28167;BME280;15455;53.376;-6.262;2023-06-04T10:29:02;102318.69;;;16.84;100.00
28167;BME280;15455;53.376;-6.262;2023-06-04T10:31:52;102321.34;;;16.83;100.00
28167;BME280;15455;53.376;-6.262;2023-06-04T10:34:38;102323.06;;;16.84;100.00
28167;BME280;15455;53.376;-6.262;2023-06-04T10:37:25;102326.66;;;16.78;100.00
28167;BME280;15455;53.376;-6.262;2023-06-04T10:40:11;102329.28;;;16.80;100.00
28167;BME280;15455;53.376;-6.262;2023-06-04T10:43:07;102337.16;;;16.77;100.00
28167;BME280;15455;53.376;-6.262;2023-06-04T10:45:53;102335.41;;;16.80;100.00
28167;BME280;15455;53.376;-6.262;2023-06-04T10:48:53;102331.00;;;16.82;100.00
28167;BME280;15455;53.376;-6.262;2023-06-04T10:51:43;102332.75;;;16.85;100.00
28167;BME280;15455;53.376;-6.262;2023-06-04T10:54:29;102331.00;;;16.86;100.00
28167;BME280;15455;53.376;-6.262;2023-06-04T10:57:17;102336.28;;;16.92;100.00
28167;BME280;15455;53.376;-6.262;2023-06-04T11:00:03;102338.03;;;16.97;100.00
28167;BME280;15455;53.376;-6.262;2023-06-04T11:02:56;102341.53;;;17.01;100.00
28167;BME280;15455;53.376;-6.262;2023-06-04T11:05:46;102340.63;;;17.05;100.00
28167;BME280;15455;53.376;-6.262;2023-06-04T11:08:32;102340.59;;;17.13;100.00
28167;BME280;15455;53.376;-6.262;2023-06-04T11:11:18;102341.44;;;17.23;100.00
28167;BME280;15455;53.376;-6.262;2023-06-04T11:14:13;102347.56;;;17.28;100.00
28167;BME280;15455;53.376;-6.262;2023-06-04T11:17:12;102350.22;;;17.26;100.00
28167;BME280;15455;53.376;-6.262;2023-06-04T11:19:57;102352.84;;;17.28;100.00
28167;BME280;15455;53.376;-6.262;2023-06-04T11:22:56;102349.31;;;17.32;96.25
28167;BME280;15455;53.376;-6.262;2023-06-04T11:25:43;102351.88;;;17.44;100.00
28167;BME280;15455;53.376;-6.262;2023-06-04T11:28:29;102356.22;;;17.56;100.00
28167;BME280;15455;53.376;-6.262;2023-06-04T11:31:14;102350.91;;;17.64;85.83
28167;BME280;15455;53.376;-6.262;2023-06-04T11:34:00;102347.31;;;17.76;90.32
28167;BME280;15455;53.376;-6.262;2023-06-04T11:36:45;102347.25;;;17.80;81.81
28167;BME280;15455;53.376;-6.262;2023-06-04T11:39:34;102348.97;;;17.91;91.24
28167;BME280;15455;53.376;-6.262;2023-06-04T11:42:20;102335.72;;;18.00;100.00
28167;BME280;15455;53.376;-6.262;2023-06-04T11:45:07;102350.53;;;18.18;100.00
28167;BME280;15455;53.376;-6.262;2023-06-04T11:47:54;102342.31;;;18.47;100.00
28167;BME280;15455;53.376;-6.262;2023-06-04T11:50:41;102349.97;;;18.77;100.00
28167;BME280;15455;53.376;-6.262;2023-06-04T11:53:28;102348.81;;;19.01;100.00
28167;BME280;15455;53.376;-6.262;2023-06-04T11:56:16;102353.03;;;19.17;100.00
28167;BME280;15455;53.376;-6.262;2023-06-04T11:59:02;102344.00;;;19.34;100.00
28167;BME280;15455;53.376;-6.262;2023-06-04T12:01:47;102341.91;;;19.59;100.00
28167;BME280;15455;53.376;-6.262;2023-06-04T12:04:34;102337.13;;;19.84;100.00
28167;BME280;15455;53.376;-6.262;2023-06-04T12:07:20;102336.34;;;19.74;100.00
28167;BME280;15455;53.376;-6.262;2023-06-04T12:10:10;102342.41;;;19.84;100.00
28167;BME280;15455;53.376;-6.262;2023-06-04T12:12:57;102345.56;;;20.09;100.00
28167;BME280;15455;53.376;-6.262;2023-06-04T12:15:42;102344.28;;;20.30;100.00
28167;BME280;15455;53.376;-6.262;2023-06-04T12:18:27;102342.25;;;20.46;100.00
28167;BME280;15455;53.376;-6.262;2023-06-04T12:21:24;102341.56;;;20.37;95.92
28167;BME280;15455;53.376;-6.262;2023-06-04T12:24:13;102344.44;;;20.23;100.00
28167;BME280;15455;53.376;-6.262;2023-06-04T12:27:07;102336.53;;;20.20;100.00
28167;BME280;15455;53.376;-6.262;2023-06-04T12:32:42;102334.97;;;20.58;100.00
28167;BME280;15455;53.376;-6.262;2023-06-04T12:35:28;102341.00;;;20.66;100.00
28167;BME280;15455;53.376;-6.262;2023-06-04T12:38:14;102338.06;;;20.83;100.00
28167;BME280;15455;53.376;-6.262;2023-06-04T12:40:59;102347.16;;;21.13;100.00
28167;BME280;15455;53.376;-6.262;2023-06-04T12:43:45;102342.28;;;21.34;100.00
28167;BME280;15455;53.376;-6.262;2023-06-04T12:46:30;102343.66;;;21.54;100.00
28167;BME280;15455;53.376;-6.262;2023-06-04T12:49:16;102343.00;;;21.81;100.00
28167;BME280;15455;53.376;-6.262;2023-06-04T12:52:02;102340.59;;;21.71;100.00
28167;BME280;15455;53.376;-6.262;2023-06-04T12:54:48;102342.47;;;21.67;100.00
28167;BME280;15455;53.376;-6.262;2023-06-04T12:57:33;102347.41;;;21.82;100.00
28167;BME280;15455;53.376;-6.262;2023-06-04T13:00:18;102341.19;;;21.83;97.56
28167;BME280;15455;53.376;-6.262;2023-06-04T13:03:04;102340.13;;;21.91;100.00
28167;BME280;15455;53.376;-6.262;2023-06-04T13:05:49;102343.22;;;22.08;100.00
28167;BME280;15455;53.376;-6.262;2023-06-04T13:08:36;102350.13;;;22.15;100.00
28167;BME280;15455;53.376;-6.262;2023-06-04T13:11:22;102345.84;;;22.10;100.00
28167;BME280;15455;53.376;-6.262;2023-06-04T13:14:08;102349.28;;;22.15;97.99
28167;BME280;15455;53.376;-6.262;2023-06-04T13:16:54;102348.69;;;22.02;98.44
28167;BME280;15455;53.376;-6.262;2023-06-04T13:19:44;102345.41;;;21.92;100.00
28167;BME280;15455;53.376;-6.262;2023-06-04T13:22:29;102348.09;;;21.91;100.00
28167;BME280;15455;53.376;-6.262;2023-06-04T13:25:15;102344.31;;;21.99;100.00
28167;BME280;15455;53.376;-6.262;2023-06-04T13:28:01;102343.47;;;21.99;100.00
28167;BME280;15455;53.376;-6.262;2023-06-04T13:30:48;102342.38;;;22.08;100.00
28167;BME280;15455;53.376;-6.262;2023-06-04T13:33:34;102339.91;;;22.00;100.00
28167;BME280;15455;53.376;-6.262;2023-06-04T13:36:19;102328.94;;;22.12;100.00
28167;BME280;15455;53.376;-6.262;2023-06-04T13:39:05;102334.03;;;22.22;100.00
28167;BME280;15455;53.376;-6.262;2023-06-04T13:41:51;102335.34;;;22.40;100.00
28167;BME280;15455;53.376;-6.262;2023-06-04T13:44:36;102334.41;;;22.42;90.52
28167;BME280;15455;53.376;-6.262;2023-06-04T13:47:21;102339.28;;;22.59;95.41
28167;BME280;15455;53.376;-6.262;2023-06-04T13:50:07;102327.50;;;22.68;100.00
28167;BME280;15455;53.376;-6.262;2023-06-04T13:52:53;102339.44;;;22.84;86.25
28167;BME280;15455;53.376;-6.262;2023-06-04T13:55:39;102330.81;;;22.76;99.28
28167;BME280;15455;53.376;-6.262;2023-06-04T13:58:25;102337.94;;;22.76;88.41
28167;BME280;15455;53.376;-6.262;2023-06-04T14:01:11;102338.97;;;22.70;80.83
28167;BME280;15455;53.376;-6.262;2023-06-04T14:03:56;102335.53;;;22.32;88.49
28167;BME280;15455;53.376;-6.262;2023-06-04T14:06:44;102325.25;;;22.52;90.13
28167;BME280;15455;53.376;-6.262;2023-06-04T14:09:31;102329.50;;;22.91;90.11
28167;BME280;15455;53.376;-6.262;2023-06-04T14:12:17;102327.16;;;23.10;87.27
28167;BME280;15455;53.376;-6.262;2023-06-04T14:15:04;102319.63;;;22.95;90.02
28167;BME280;15455;53.376;-6.262;2023-06-04T14:17:50;102323.28;;;22.90;83.17